Time;durP1;ratioP1;P1;durP2;ratioP2;P2;SDS_P1;SDS_P2;PMS_P1;PMS_P2;Temp;Humidity;BMP_temperature;BMP_pressure;BME280_temperature;BME280_humidity;BME280_pressure;Samples;Min_cycle;Max_cycle;Signal;HPM_P1;HPM_P2
2022/11/12 00:02:05;;;;;;;;;68.00;54.00;;;;;16.68;56.65;100971.31;4888820;29;8903;-89
2022/11/12 00:04:55;;;;;;;;;71.50;55.00;;;;;16.64;56.82;100977.47;4926093;29;8973;-92
2022/11/12 00:07:42;;;;;;;;;71.25;55.25;;;;;16.66;56.78;100973.06;4926335;29;8998;-91
2022/11/12 00:10:32;;;;;;;;;70.25;54.25;;;;;16.66;56.71;100980.97;4911629;29;8855;-90
2022/11/12 00:13:24;;;;;;;;;73.25;57.25;;;;;16.69;56.75;100970.44;4926449;28;8878;-91
2022/11/12 00:16:12;;;;;;;;;71.75;56.75;;;;;16.67;56.88;100981.84;4942647;28;8844;-90
2022/11/12 00:19:00;;;;;;;;;68.00;55.75;;;;;16.66;56.44;100978.34;4923047;29;9717;-91
2022/11/12 00:21:49;;;;;;;;;68.50;54.50;;;;;16.66;56.86;100967.81;4951681;28;8843;-90
2022/11/12 00:24:36;;;;;;;;;70.25;55.00;;;;;16.66;56.86;100972.22;4922865;29;8859;-91
2022/11/12 00:27:26;;;;;;;;;75.00;57.50;;;;;16.45;57.00;100975.78;4908384;29;8867;-91
2022/11/12 00:30:14;;;;;;;;;71.00;55.25;;;;;16.38;57.04;100973.13;4923719;29;8986;-93
2022/11/12 00:33:03;;;;;;;;;71.00;56.25;;;;;15.68;59.69;100976.59;4924065;29;9030;-89
2022/11/12 00:35:51;;;;;;;;;72.25;54.75;;;;;15.57;59.63;100981.81;4955420;28;8863;-91
2022/11/12 00:38:39;;;;;;;;;73.00;57.00;;;;;15.64;59.53;100980.09;4940723;29;8938;-90
2022/11/12 00:41:27;;;;;;;;;70.25;56.00;;;;;15.75;59.26;100982.78;4974910;28;8866;-88
2022/11/12 00:44:17;;;;;;;;;68.50;54.50;;;;;15.86;59.02;100967.00;4956378;28;8868;-90
2022/11/12 00:47:04;;;;;;;;;64.00;51.50;;;;;15.82;58.87;100976.63;4925464;29;8926;-90
2022/11/12 00:49:55;;;;;;;;;70.00;56.50;;;;;15.62;59.53;100965.22;4938716;28;8899;-90
2022/11/12 00:52:43;;;;;;;;;70.75;57.50;;;;;15.74;59.14;100960.84;4912928;28;8870;-92
2022/11/12 00:55:31;;;;;;;;;67.25;53.50;;;;;15.49;59.85;100969.56;4957082;28;8916;-89
2022/11/12 00:58:19;;;;;;;;;63.00;51.50;;;;;15.51;59.63;100973.94;4941908;28;8874;-91
2022/11/12 01:01:14;;;;;;;;;69.75;55.25;;;;;15.44;59.81;100974.78;4943039;28;8865;-90
2022/11/12 01:04:02;;;;;;;;;67.50;54.25;;;;;15.38;60.39;100980.03;4943820;28;8952;-91
2022/11/12 01:06:50;;;;;;;;;66.00;51.75;;;;;15.41;60.00;100974.81;4982058;28;8866;-89
2022/11/12 01:09:38;;;;;;;;;70.50;54.00;;;;;15.59;59.73;100964.34;4997171;28;8954;-90
2022/11/12 01:12:26;;;;;;;;;68.00;52.50;;;;;15.56;59.56;100976.59;4982189;28;8865;-90
2022/11/12 01:15:15;;;;;;;;;65.75;52.75;;;;;15.75;58.96;100967.00;4984153;28;8931;-90
2022/11/12 01:18:05;;;;;;;;;68.50;53.75;;;;;15.65;58.66;100957.31;4982076;28;8856;-92
2022/11/12 01:20:54;;;;;;;;;68.25;54.00;;;;;15.25;60.47;100954.59;5005560;28;8840;-90
2022/11/12 01:23:42;;;;;;;;;71.50;56.25;;;;;15.35;60.16;100951.13;4997330;28;8841;-92
2022/11/12 01:26:30;;;;;;;;;68.25;54.00;;;;;15.37;60.20;100950.25;4995979;28;8845;-89
2022/11/12 01:29:17;;;;;;;;;73.00;56.50;;;;;15.16;60.57;100937.03;5012943;28;8880;-90
2022/11/12 01:32:05;;;;;;;;;70.50;56.00;;;;;15.42;59.88;100937.09;4978411;28;8881;-90
2022/11/12 01:34:55;;;;;;;;;71.25;56.25;;;;;15.42;59.71;100937.09;4964212;28;8869;-92
2022/11/12 01:37:43;;;;;;;;;66.00;52.25;;;;;15.56;59.09;100927.50;4963833;28;8900;-90
2022/11/12 01:40:32;;;;;;;;;71.75;53.75;;;;;15.69;59.22;100922.25;4971999;28;8966;-89
2022/11/12 01:43:20;;;;;;;;;68.50;54.25;;;;;15.79;59.04;100917.03;4949096;28;8917;-90
2022/11/12 01:46:16;;;;;;;;;68.75;55.50;;;;;15.98;58.63;100922.28;4942711;28;8895;-92
2022/11/12 01:49:09;;;;;;;;;69.75;55.50;;;;;16.04;58.44;100921.41;4940742;28;8894;-90
2022/11/12 01:52:25;;;;;;;;;70.75;57.00;;;;;16.15;57.89;100911.75;4925856;28;8992;-89
2022/11/12 01:55:14;;;;;;;;;69.75;53.50;;;;;15.94;58.15;100908.25;4958235;28;8891;-90
2022/11/12 01:58:09;;;;;;;;;65.50;52.75;;;;;15.93;57.99;100903.84;4944154;28;8909;-87
2022/11/12 02:01:16;;;;;;;;;67.25;55.00;;;;;15.99;57.56;100905.59;4904720;29;8891;-89
2022/11/12 02:04:05;;;;;;;;;63.75;51.50;;;;;15.93;57.89;100897.72;4921603;29;8953;-88
2022/11/12 02:06:55;;;;;;;;;66.00;51.00;;;;;15.47;58.93;100898.56;4890711;29;8971;-90
2022/11/12 02:09:44;;;;;;;;;65.25;52.75;;;;;15.67;58.71;100893.34;4921527;29;8877;-89
2022/11/12 02:15:39;;;;;;;;;70.25;55.75;;;;;15.73;58.47;100888.09;4922991;28;8879;-89
2022/11/12 02:18:26;;;;;;;;;65.75;51.75;;;;;15.83;57.99;100881.09;4941738;28;8854;-88
2022/11/12 02:21:14;;;;;;;;;67.00;54.75;;;;;15.93;57.76;100895.09;4925578;28;8882;-90
2022/11/12 02:24:05;;;;;;;;;70.75;53.50;;;;;16.06;57.41;100904.72;4941620;28;8855;-91
2022/11/12 02:26:58;;;;;;;;;68.50;56.75;;;;;16.07;56.95;100903.88;4995513;28;8839;-91
2022/11/12 02:29:46;;;;;;;;;69.00;54.50;;;;;15.97;57.55;100896.84;5050876;28;8962;-90
2022/11/12 02:32:33;;;;;;;;;64.25;52.50;;;;;16.00;57.02;100901.25;5045888;28;8862;-91
2022/11/12 02:35:21;;;;;;;;;69.25;54.75;;;;;15.99;57.01;100889.81;5062296;28;8880;-91
2022/11/12 02:38:10;;;;;;;;;69.25;54.00;;;;;16.05;57.53;100881.03;5037430;28;8848;-90
2022/11/12 02:41:19;;;;;;;;;69.25;54.25;;;;;16.12;56.81;100886.31;4995820;28;8883;-91
2022/11/12 02:44:09;;;;;;;;;64.75;52.00;;;;;16.07;56.68;100877.56;4946381;28;8882;-89
2022/11/12 02:46:57;;;;;;;;;69.50;55.25;;;;;15.84;57.47;100882.84;4959646;28;8989;-90
2022/11/12 02:49:44;;;;;;;;;68.00;53.50;;;;;15.83;57.45;100867.94;4960857;28;9010;-90
2022/11/12 02:52:33;;;;;;;;;68.00;53.50;;;;;15.77;57.45;100870.56;4976160;28;8865;-90
2022/11/12 02:55:23;;;;;;;;;60.25;49.50;;;;;15.65;57.73;100870.53;4941596;28;8841;-89
2022/11/12 02:58:13;;;;;;;;;67.75;54.75;;;;;15.24;59.07;100868.75;4944055;28;8857;-91
2022/11/12 03:01:01;;;;;;;;;63.00;50.75;;;;;15.24;59.35;100874.88;4980308;28;8858;-89
2022/11/12 03:03:49;;;;;;;;;68.00;53.50;;;;;14.99;60.24;100880.09;4979741;28;8853;-90
2022/11/12 03:06:36;;;;;;;;;68.25;54.50;;;;;14.96;59.78;100871.31;4995860;28;8829;-90
2022/11/12 03:09:24;;;;;;;;;67.00;53.75;;;;;15.06;59.72;100872.22;5017301;28;8874;-89
2022/11/12 03:12:12;;;;;;;;;69.25;55.25;;;;;14.89;60.61;100853.78;5019889;28;8825;-90
2022/11/12 03:15:01;;;;;;;;;67.75;52.50;;;;;14.92;60.08;100862.53;5014669;28;8877;-87
2022/11/12 03:17:49;;;;;;;;;66.75;52.50;;;;;14.54;61.72;100859.75;5032614;28;8843;-89
2022/11/12 03:20:36;;;;;;;;;67.50;53.50;;;;;14.91;60.13;100858.16;5033561;28;8861;-90
2022/11/12 03:23:25;;;;;;;;;70.25;55.25;;;;;14.71;60.95;100855.47;5018263;28;8921;-90
2022/11/12 03:26:13;;;;;;;;;67.00;54.50;;;;;14.64;61.12;100858.94;5005821;28;8839;-90
2022/11/12 03:29:03;;;;;;;;;67.25;53.25;;;;;14.89;60.39;100849.41;4991175;28;8883;-90
2022/11/12 03:31:52;;;;;;;;;67.25;52.25;;;;;15.07;60.10;100847.72;4997789;28;8866;-90
2022/11/12 03:34:40;;;;;;;;;68.75;52.75;;;;;14.85;60.69;100838.88;4984746;28;8880;-89
2022/11/12 03:37:28;;;;;;;;;68.50;55.50;;;;;14.80;60.63;100844.09;4982916;28;8906;-90
2022/11/12 03:40:19;;;;;;;;;70.25;54.00;;;;;14.87;60.35;100853.78;4979641;28;8856;-90
2022/11/12 03:43:06;;;;;;;;;69.00;54.75;;;;;14.87;60.51;100852.91;4979652;28;8860;-91
2022/11/12 03:45:56;;;;;;;;;67.75;53.75;;;;;15.08;59.66;100865.22;4993609;28;8863;-88
2022/11/12 03:48:46;;;;;;;;;68.75;51.00;;;;;15.23;59.20;100873.13;5032897;28;8838;-90
2022/11/12 03:51:33;;;;;;;;;60.75;50.75;;;;;15.32;58.96;100867.00;5032390;28;8935;-90
2022/11/12 03:54:21;;;;;;;;;67.25;55.25;;;;;15.46;58.53;100867.00;5029504;28;8858;-92
2022/11/12 03:57:34;;;;;;;;;67.00;55.00;;;;;15.58;58.42;100867.03;4995796;28;8837;-92
2022/11/12 04:00:23;;;;;;;;;65.50;52.75;;;;;15.66;58.36;100881.06;4993331;28;8865;-91
2022/11/12 04:03:13;;;;;;;;;66.00;53.00;;;;;15.57;58.11;100873.16;4977874;28;8884;-88
2022/11/12 04:09:07;;;;;;;;;66.75;52.25;;;;;15.43;58.39;100872.28;4982041;28;8936;-90
2022/11/12 04:11:54;;;;;;;;;68.50;55.00;;;;;15.46;58.30;100867.88;5033749;28;8854;-90
2022/11/12 04:14:43;;;;;;;;;67.25;54.00;;;;;15.54;58.04;100870.53;5001035;28;8865;-89
2022/11/12 04:23:45;;;;;;;;;78.33;63.67;;;;;15.71;57.56;100879.31;4966962;28;8889;-90
2022/11/12 04:26:31;;;;;;;;;72.50;57.75;;;;;15.77;57.08;100881.97;4961172;28;9280;-91
2022/11/12 04:32:48;;;;;;;;;68.50;54.00;;;;;15.82;56.98;100886.34;4888301;29;8885;-89
2022/11/12 04:35:36;;;;;;;;;65.25;52.25;;;;;15.83;56.99;100882.84;4904473;29;8894;-89
2022/11/12 04:38:23;;;;;;;;;71.00;54.50;;;;;15.72;57.13;100873.16;4884255;29;8859;-90
2022/11/12 04:47:22;;;;;;;;;70.50;55.50;;;;;15.86;56.87;100861.78;4897431;29;8874;-91
2022/11/12 04:50:15;;;;;;;;;71.25;54.00;;;;;15.94;56.82;100858.28;4899400;29;8885;-90
2022/11/12 04:53:02;;;;;;;;;67.75;52.25;;;;;15.90;56.40;100866.19;4885555;29;8866;-90
2022/11/12 04:55:51;;;;;;;;;67.50;52.75;;;;;15.95;56.33;100864.41;4899845;29;8867;-89
2022/11/12 04:58:39;;;;;;;;;68.75;54.25;;;;;15.66;56.96;100874.94;4885591;29;9657;-88
2022/11/12 05:01:48;;;;;;;;;72.00;55.75;;;;;15.51;57.34;100867.91;4851427;29;8923;-90
2022/11/12 05:04:36;;;;;;;;;69.00;55.75;;;;;15.21;58.40;100870.47;4848128;29;9026;-90
2022/11/12 05:07:23;;;;;;;;;69.25;54.25;;;;;15.01;59.14;100880.09;4853114;29;8879;-91
2022/11/12 05:10:11;;;;;;;;;70.75;55.00;;;;;15.09;58.49;100888.00;4866587;29;9010;-88
2022/11/12 05:12:59;;;;;;;;;60.25;49.75;;;;;15.14;58.66;100887.13;4893987;29;8982;-91
2022/11/12 05:15:47;;;;;;;;;75.00;58.00;;;;;15.27;58.44;100884.50;4893074;29;8899;-89
2022/11/12 05:18:35;;;;;;;;;68.75;56.25;;;;;15.40;57.97;100886.28;4907552;29;8889;-89
2022/11/12 05:24:33;;;;;;;;;74.00;57.50;;;;;15.45;57.75;100878.41;4963906;28;11628;-90
2022/11/12 05:27:33;;;;;;;;;65.50;52.25;;;;;15.49;57.27;100878.41;4988884;28;9594;-90
2022/11/12 05:30:21;;;;;;;;;71.00;56.50;;;;;15.49;57.78;100890.69;5000467;28;8855;-90
2022/11/12 05:33:10;;;;;;;;;69.75;55.00;;;;;15.59;57.26;100890.72;5018043;28;8879;-91
2022/11/12 05:36:02;;;;;;;;;74.00;55.50;;;;;15.69;57.50;100888.06;5001112;28;8855;-89
2022/11/12 05:38:49;;;;;;;;;69.50;56.50;;;;;15.73;57.19;100892.47;4984136;28;8874;-89
2022/11/12 05:41:37;;;;;;;;;65.25;52.25;;;;;15.55;57.17;100891.56;5018568;28;8851;-89
2022/11/12 05:44:44;;;;;;;;;60.00;50.00;;;;;14.91;59.09;100891.44;4999746;28;8885;-89
2022/11/12 05:47:32;;;;;;;;;63.75;52.25;;;;;14.89;59.61;100894.03;4982909;28;8874;-90
2022/11/12 05:50:20;;;;;;;;;62.50;52.00;;;;;14.92;59.47;100901.94;4999921;28;8896;-90
2022/11/12 05:53:08;;;;;;;;;64.50;53.00;;;;;14.86;59.62;100899.31;5001115;28;8885;-90
2022/11/12 05:56:00;;;;;;;;;70.25;53.75;;;;;14.85;59.68;100902.78;4999860;28;8873;-90
2022/11/12 05:58:48;;;;;;;;;66.75;53.25;;;;;15.20;59.13;100899.41;4999137;28;8862;-88
2022/11/12 06:01:43;;;;;;;;;64.00;52.00;;;;;15.22;58.66;100895.03;5002012;28;8877;-91
2022/11/12 06:04:34;;;;;;;;;63.50;51.00;;;;;15.39;58.62;100901.19;5025940;28;8851;-89
2022/11/12 06:07:26;;;;;;;;;67.75;54.25;;;;;15.49;57.97;100901.22;5070015;23;8821;-90
2022/11/12 06:10:31;;;;;;;;;65.00;52.75;;;;;15.62;57.87;100889.81;5035833;28;8841;-89
2022/11/12 06:13:25;;;;;;;;;65.25;52.50;;;;;15.76;57.55;100888.13;5010200;28;8855;-90
2022/11/12 06:16:26;;;;;;;;;70.75;55.00;;;;;15.68;57.42;100878.44;5013727;28;8951;-88
2022/11/12 06:19:36;;;;;;;;;69.75;56.25;;;;;15.63;57.53;100875.78;4986215;28;8938;-90
2022/11/12 06:22:40;;;;;;;;;59.75;49.25;;;;;15.74;57.61;100875.81;4901997;29;9028;-90
2022/11/12 06:25:35;;;;;;;;;73.50;56.00;;;;;15.78;57.21;100880.19;4943999;28;9644;-88
2022/11/12 06:28:46;;;;;;;;;71.00;55.50;;;;;15.82;57.37;100870.56;4964141;28;8862;-90
2022/11/12 06:32:05;;;;;;;;;69.75;57.25;;;;;15.96;57.12;100864.41;4890138;29;8870;-89
2022/11/12 06:34:54;;;;;;;;;70.50;57.00;;;;;15.91;56.94;100866.16;4884292;29;8907;-91
2022/11/12 06:38:19;;;;;;;;;71.50;54.00;;;;;16.20;56.41;100873.16;4884315;29;9001;-88
2022/11/12 06:41:16;;;;;;;;;69.50;56.00;;;;;16.17;56.45;100870.50;4862030;29;8890;-88
2022/11/12 06:44:05;;;;;;;;;77.25;58.25;;;;;16.24;55.98;100874.00;4896040;29;8875;-88
2022/11/12 06:46:53;;;;;;;;;66.75;52.75;;;;;16.37;55.89;100881.88;4917751;29;8951;-90
2022/11/12 06:49:41;;;;;;;;;72.75;55.75;;;;;16.45;55.26;100886.25;4901600;29;9001;-88
2022/11/12 06:52:30;;;;;;;;;66.50;54.00;;;;;16.49;55.16;100885.34;4901847;29;8879;-89
2022/11/12 06:55:19;;;;;;;;;69.00;55.25;;;;;16.37;55.46;100876.59;4920820;28;9659;-89
2022/11/12 06:58:07;;;;;;;;;63.75;52.00;;;;;16.32;55.24;100862.56;4905193;29;8881;-89
2022/11/12 07:00:54;;;;;;;;;70.25;54.75;;;;;16.03;56.54;100870.56;4924139;29;8896;-89
2022/11/12 07:03:43;;;;;;;;;67.50;54.50;;;;;16.02;56.81;100867.91;4930392;29;8845;-90
2022/11/12 07:06:33;;;;;;;;;64.50;48.50;;;;;15.99;56.36;100871.41;4942879;29;8877;-90
2022/11/12 07:09:21;;;;;;;;;65.75;51.25;;;;;16.18;56.28;100877.50;4985680;28;8847;-90
2022/11/12 07:12:10;;;;;;;;;65.50;51.50;;;;;16.36;55.72;100880.09;5018996;28;8890;-89
2022/11/12 07:14:58;;;;;;;;;66.00;52.25;;;;;16.47;55.52;100887.97;5004284;28;8861;-89
2022/11/12 07:17:46;;;;;;;;;67.75;51.00;;;;;16.62;55.26;100875.66;5018156;28;8875;-90
2022/11/12 07:20:34;;;;;;;;;69.25;54.50;;;;;15.77;57.62;100883.72;5019355;28;8931;-87
2022/11/12 07:23:25;;;;;;;;;63.50;51.75;;;;;15.93;57.06;100880.19;5002499;28;8892;-89
2022/11/12 07:26:19;;;;;;;;;65.00;53.50;;;;;15.80;57.62;100888.97;5018074;28;8879;-90
2022/11/12 07:29:19;;;;;;;;;68.25;53.00;;;;;16.07;57.18;100892.47;5034510;28;8854;-90
2022/11/12 07:36:26;;;;;;;;;68.25;54.25;;;;;16.44;56.61;100897.66;4957921;28;8866;-89
2022/11/12 07:40:03;;;;;;;;;68.50;52.75;;;;;16.90;55.59;100905.41;4938382;28;8882;-90
2022/11/12 07:42:51;;;;;;;;;67.25;53.25;;;;;16.68;55.67;100902.84;4938300;28;8925;-90
2022/11/12 07:45:40;;;;;;;;;68.75;55.25;;;;;16.79;55.49;100894.88;4953242;28;8854;-89
2022/11/12 07:49:48;;;;;;;;;64.75;52.75;;;;;17.05;55.23;100900.06;4956419;28;8810;-90
2022/11/12 07:52:43;;;;;;;;;68.00;53.00;;;;;17.11;54.55;100909.72;4916752;28;8867;-88
2022/11/12 07:55:30;;;;;;;;;68.00;55.00;;;;;17.17;54.22;100907.03;4976814;28;8859;-88
2022/11/12 07:58:18;;;;;;;;;69.25;54.00;;;;;17.19;54.43;100904.38;4975721;28;8862;-87
2022/11/12 08:01:11;;;;;;;;;60.50;48.25;;;;;17.49;53.92;100912.09;4982717;28;8909;-89
2022/11/12 08:04:00;;;;;;;;;62.50;50.50;;;;;17.42;54.02;100913.00;4935026;29;8855;-85
2022/11/12 08:06:51;;;;;;;;;63.25;52.00;;;;;17.44;53.58;100918.28;4935347;29;8867;-86
2022/11/12 08:09:40;;;;;;;;;65.75;51.50;;;;;17.35;54.01;100921.84;4912368;29;8884;-88
2022/11/12 08:12:29;;;;;;;;;65.75;51.25;;;;;17.45;53.79;100914.78;4928146;28;8883;-89
2022/11/12 08:15:18;;;;;;;;;64.75;51.75;;;;;17.44;53.63;100911.25;4955236;28;8879;-90
2022/11/12 08:18:07;;;;;;;;;63.50;51.00;;;;;17.13;54.35;100918.47;4950533;28;9673;-90
2022/11/12 08:21:18;;;;;;;;;65.50;52.75;;;;;17.25;54.32;100915.75;4940680;28;8866;-89
2022/11/12 08:24:06;;;;;;;;;70.50;55.75;;;;;17.24;54.01;100906.13;4960747;28;8898;-86
2022/11/12 08:26:57;;;;;;;;;71.00;55.50;;;;;17.46;54.20;100896.28;4961332;28;8961;-89
2022/11/12 08:29:44;;;;;;;;;66.50;54.25;;;;;17.64;53.32;100902.34;4960737;28;9679;-88
2022/11/12 08:32:32;;;;;;;;;66.50;54.50;;;;;17.50;53.68;100910.31;4963182;28;8981;-88
2022/11/12 08:35:22;;;;;;;;;64.25;51.75;;;;;17.66;53.36;100906.69;4973159;28;8874;-86
2022/11/12 08:38:10;;;;;;;;;63.00;52.00;;;;;17.88;52.53;100910.06;4982728;28;9212;-86
2022/11/12 08:41:03;;;;;;;;;61.75;50.50;;;;;18.05;52.56;100909.94;4987302;28;8890;-88
2022/11/12 08:43:51;;;;;;;;;62.00;48.75;;;;;18.09;52.14;100916.03;5021373;28;8883;-87
2022/11/12 08:46:40;;;;;;;;;62.25;50.75;;;;;18.17;51.92;100903.66;4999289;28;8889;-87
2022/11/12 08:49:29;;;;;;;;;59.50;49.25;;;;;18.33;51.89;100914.03;4983573;28;8866;-88
2022/11/12 08:52:17;;;;;;;;;65.00;51.75;;;;;17.52;53.52;100919.09;4988581;28;8861;-88
2022/11/12 08:55:08;;;;;;;;;66.00;52.75;;;;;16.92;55.60;100922.09;4966132;28;8868;-87
2022/11/12 08:58:00;;;;;;;;;65.50;51.00;;;;;17.34;54.38;100920.13;4975984;28;8891;-89
2022/11/12 09:00:49;;;;;;;;;67.00;54.25;;;;;17.59;53.79;100912.03;4959651;28;8970;-88
2022/11/12 09:03:40;;;;;;;;;67.25;53.00;;;;;17.84;53.36;100913.59;4957877;28;8889;-86
2022/11/12 09:06:28;;;;;;;;;66.75;53.00;;;;;18.07;52.54;100923.09;4958145;28;8906;-87
2022/11/12 09:09:17;;;;;;;;;61.00;48.50;;;;;18.26;51.96;100919.41;4974927;28;8863;-87
2022/11/12 09:12:06;;;;;;;;;59.50;48.75;;;;;18.40;51.44;100915.75;4959418;28;8897;-88
2022/11/12 09:15:25;;;;;;;;;57.50;47.00;;;;;18.52;50.70;100920.88;4918210;29;8896;-88
2022/11/12 09:18:30;;;;;;;;;56.00;45.50;;;;;18.66;50.02;100916.31;4932541;29;8863;-89
2022/11/12 09:21:23;;;;;;;;;55.50;43.00;;;;;18.76;49.88;100913.56;4921491;29;8867;-88
2022/11/12 09:24:12;;;;;;;;;57.75;46.50;;;;;18.78;49.82;100917.94;4921639;29;8871;-88
2022/11/12 09:27:01;;;;;;;;;54.75;44.75;;;;;18.88;49.13;100919.63;4908300;29;8912;-87
2022/11/12 09:29:53;;;;;;;;;52.75;44.75;;;;;18.94;49.15;100929.22;4932530;28;8878;-87
2022/11/12 09:32:40;;;;;;;;;51.25;43.25;;;;;18.97;48.96;100928.31;4957270;28;8858;-89
2022/11/12 09:35:45;;;;;;;;;55.50;45.25;;;;;19.03;48.65;100931.72;4918882;29;8883;-88
2022/11/12 09:38:33;;;;;;;;;57.75;47.75;;;;;19.15;48.54;100933.34;4904030;29;8890;-88
2022/11/12 09:41:28;;;;;;;;;53.75;44.50;;;;;19.28;48.81;100928.75;4991244;28;8840;-88
2022/11/12 09:44:23;;;;;;;;;60.25;49.00;;;;;19.39;48.47;100920.66;4993394;28;8855;-89
2022/11/12 09:47:18;;;;;;;;;61.25;49.00;;;;;19.50;48.24;100923.16;4985695;28;8879;-89
2022/11/12 09:50:20;;;;;;;;;57.75;47.50;;;;;19.56;47.77;100913.34;4978867;28;8895;-89
2022/11/12 09:53:14;;;;;;;;;55.75;46.75;;;;;19.51;47.63;100919.59;4973639;28;8879;-86
2022/11/12 09:56:07;;;;;;;;;58.00;46.25;;;;;19.46;47.84;100912.63;4947961;28;9097;-87
2022/11/12 09:58:55;;;;;;;;;57.50;46.25;;;;;19.41;47.66;100910.94;4947349;28;8896;-88
2022/11/12 10:01:54;;;;;;;;;61.25;48.25;;;;;19.38;47.57;100909.22;4960677;28;8999;-88
2022/11/12 10:05:22;;;;;;;;;54.75;45.25;;;;;19.37;47.72;100907.47;4959786;28;8887;-89
2022/11/12 10:08:32;;;;;;;;;54.50;44.25;;;;;19.25;47.56;100899.72;4931407;28;8922;-89
2022/11/12 10:18:59;;;;;;;;;45.50;37.75;;;;;19.39;46.07;100894.22;4869362;29;9056;-88
2022/11/12 10:21:57;;;;;;;;;42.25;35.25;;;;;19.32;45.27;100895.19;4883795;29;8878;-89
2022/11/12 10:24:45;;;;;;;;;45.50;37.50;;;;;19.32;46.01;100888.16;4898780;29;8998;-86
2022/11/12 10:27:38;;;;;;;;;43.00;37.50;;;;;19.52;45.82;100879.03;4899087;29;8874;-86
2022/11/12 10:30:25;;;;;;;;;42.20;34.00;;;;;19.39;44.19;100884.50;4902637;29;9652;-85
2022/11/12 10:33:15;;;;;;;;;34.40;33.00;;;;;19.28;43.95;100889.06;4897794;29;8866;-88
2022/11/12 10:36:16;;;;;;;;;47.25;39.50;;;;;19.54;43.44;100872.81;4882884;29;8878;-89
2022/11/12 10:39:05;;;;;;;;;44.75;37.00;;;;;19.70;43.60;100872.53;4888755;29;8878;-88
2022/11/12 10:42:03;;;;;;;;;38.25;34.00;;;;;19.76;41.76;100873.38;4893039;29;8890;-88
2022/11/12 10:44:53;;;;;;;;;34.00;32.00;;;;;19.46;41.48;100865.00;4956017;28;8892;-87
2022/11/12 10:48:01;;;;;;;;;33.40;30.80;;;;;19.62;40.79;100863.00;4892599;29;8898;-87
2022/11/12 10:50:50;;;;;;;;;32.40;30.80;;;;;19.77;40.95;100853.94;4957836;28;9048;-87
2022/11/12 10:53:40;;;;;;;;;35.00;32.20;;;;;19.82;41.35;100857.38;4979229;28;8905;-86
2022/11/12 10:56:30;;;;;;;;;35.20;29.60;;;;;19.92;41.02;100852.78;4977209;28;8854;-86
2022/11/12 10:59:19;;;;;;;;;36.40;33.00;;;;;20.08;41.59;100858.69;4960435;28;8935;-85
2022/11/12 11:02:17;;;;;;;;;46.75;37.50;;;;;20.15;41.46;100856.78;4960048;28;9616;-89
2022/11/12 11:05:27;;;;;;;;;47.00;36.75;;;;;20.34;40.92;100850.25;4981394;28;8912;-87
2022/11/12 11:08:15;;;;;;;;;42.75;35.75;;;;;20.50;40.81;100855.22;4980486;28;9048;-85
2022/11/12 11:11:18;;;;;;;;;46.00;38.75;;;;;20.60;40.80;100856.78;4886678;29;8980;-87
2022/11/12 11:14:26;;;;;;;;;37.80;33.40;;;;;20.67;40.62;100860.22;4973518;28;9129;-85
2022/11/12 11:17:17;;;;;;;;;36.00;29.80;;;;;20.56;40.04;100857.75;4972797;28;8912;-87
2022/11/12 11:20:13;;;;;;;;;29.00;28.40;;;;;20.61;39.46;100855.91;4971378;28;8899;-91
2022/11/12 11:23:07;;;;;;;;;35.00;31.80;;;;;20.20;39.82;100850.47;4973194;28;8864;-85
2022/11/12 11:26:03;;;;;;;;;35.80;32.00;;;;;20.36;39.50;100847.53;4933207;29;8882;-86
2022/11/12 11:29:00;;;;;;;;;32.40;28.80;;;;;20.30;39.28;100855.59;4954496;28;8893;-88
2022/11/12 11:31:56;;;;;;;;;31.60;29.20;;;;;20.23;39.50;100849.56;4965865;28;8960;-86
2022/11/12 11:34:52;;;;;;;;;27.20;26.40;;;;;20.07;39.24;100851.63;4964883;28;8860;-87
2022/11/12 11:37:50;;;;;;;;;22.80;21.40;;;;;20.05;38.55;100851.66;4947277;29;8975;-90
2022/11/12 11:40:55;;;;;;;;;27.80;27.00;;;;;20.04;39.08;100854.34;4939836;29;8871;-86
2022/11/12 11:43:57;;;;;;;;;31.60;30.20;;;;;19.81;39.73;100845.03;4977522;28;8955;-90
2022/11/12 11:47:19;;;;;;;;;37.00;30.80;;;;;19.70;40.09;100846.97;4938610;28;8877;-88
2022/11/12 11:50:20;;;;;;;;;35.20;29.20;;;;;19.60;40.34;100858.59;4939855;28;8847;-89
2022/11/12 11:53:20;;;;;;;;;31.00;29.60;;;;;19.61;40.52;100855.94;4953956;29;8859;-88
2022/11/12 11:56:19;;;;;;;;;35.40;32.60;;;;;19.58;40.55;100852.47;4898264;29;8880;-87
2022/11/12 11:59:23;;;;;;;;;34.20;30.80;;;;;19.78;40.46;100844.22;4904428;29;8867;-89
2022/11/12 12:02:38;;;;;;;;;35.80;31.00;;;;;19.72;40.32;100837.25;4918435;29;9604;-89
2022/11/12 12:05:39;;;;;;;;;35.80;33.00;;;;;19.35;40.45;100843.13;4932340;28;8983;-88
2022/11/12 12:08:39;;;;;;;;;37.40;33.00;;;;;19.36;40.40;100841.38;4959590;28;8895;-87
2022/11/12 12:11:35;;;;;;;;;35.80;31.00;;;;;19.58;40.29;100845.38;4959996;28;9088;-88
2022/11/12 12:14:41;;;;;;;;;38.50;34.00;;;;;19.29;40.11;100840.59;5016069;28;8867;-90
2022/11/12 12:17:43;;;;;;;;;36.80;32.20;;;;;19.15;40.12;100842.56;5038648;28;8860;-87
2022/11/12 12:20:39;;;;;;;;;34.40;30.60;;;;;19.40;40.14;100843.94;5021030;28;8910;-88
2022/11/12 12:23:32;;;;;;;;;35.80;33.00;;;;;19.41;40.25;100836.88;5036818;28;8843;-87
2022/11/12 12:26:24;;;;;;;;;34.80;31.60;;;;;19.50;40.16;100849.94;5023882;28;8921;-88
2022/11/12 12:29:17;;;;;;;;;36.40;33.40;;;;;19.31;40.35;100845.84;5043548;28;8868;-90
2022/11/12 12:32:14;;;;;;;;;35.80;31.00;;;;;19.39;40.56;100836.88;5053807;28;8867;-86
2022/11/12 12:35:21;;;;;;;;;32.80;31.00;;;;;19.29;40.78;100849.38;5053851;28;9009;-87
2022/11/12 12:38:18;;;;;;;;;40.20;34.00;;;;;18.97;41.31;100846.34;5037239;28;8855;-87
2022/11/12 12:41:17;;;;;;;;;43.25;36.25;;;;;19.32;41.24;100843.19;5021197;28;8852;-88
2022/11/12 12:44:58;;;;;;;;;37.80;33.20;;;;;19.17;40.92;100841.66;4964669;28;8873;-89
2022/11/12 12:47:43;;;;;;;;;36.40;33.00;;;;;19.24;40.69;100839.78;4976686;28;8888;-86
2022/11/12 12:50:38;;;;;;;;;32.20;30.80;;;;;19.19;40.83;100831.06;4962805;28;8868;-87
2022/11/12 12:53:34;;;;;;;;;27.00;25.20;;;;;19.17;40.24;100832.81;4981634;28;8993;-89
2022/11/12 12:56:44;;;;;;;;;24.20;23.60;;;;;19.10;39.71;100832.06;4981850;28;9046;-88
2022/11/12 12:59:31;;;;;;;;;25.60;23.00;;;;;19.16;39.68;100826.66;4885079;29;8877;-88
2022/11/12 13:02:21;;;;;;;;;30.60;27.60;;;;;19.21;39.76;100826.63;4920630;29;8849;-90
2022/11/12 13:05:30;;;;;;;;;24.80;22.00;;;;;18.96;39.62;100829.63;4939952;29;8899;-88
2022/11/12 13:08:23;;;;;;;;;28.00;25.40;;;;;19.07;39.76;100832.09;4928809;29;8934;-87
2022/11/12 13:15:14;;;;;;;;;28.60;24.00;;;;;19.22;39.43;100834.50;4921492;28;8860;-88
2022/11/12 13:18:02;;;;;;;;;26.00;25.40;;;;;19.42;38.76;100843.91;4974784;28;8860;-90
2022/11/12 13:21:12;;;;;;;;;23.60;21.80;;;;;19.39;38.69;100825.44;4968963;28;8973;-88
2022/11/12 13:24:07;;;;;;;;;23.60;23.60;;;;;18.86;39.44;100825.34;4977052;28;8913;-86
2022/11/12 13:26:57;;;;;;;;;24.80;23.40;;;;;18.97;39.53;100822.56;4976967;28;8893;-88
2022/11/12 13:29:47;;;;;;;;;28.80;28.00;;;;;18.89;40.05;100830.59;4959129;28;8882;-90
2022/11/12 13:32:40;;;;;;;;;22.80;22.80;;;;;19.07;39.83;100825.06;4925966;28;9549;-87
2022/11/12 13:35:33;;;;;;;;;30.60;29.00;;;;;18.99;40.20;100820.78;4951776;28;8952;-86
2022/11/12 13:38:23;;;;;;;;;28.80;27.20;;;;;18.79;40.25;100821.91;5057690;28;8887;-88
2022/11/12 13:45:27;;;;;;;;;35.40;32.00;;;;;18.86;40.57;100820.06;5050146;28;8870;-88
2022/11/12 13:48:43;;;;;;;;;27.00;25.40;;;;;18.69;41.16;100818.53;5052278;28;8882;-87
2022/11/12 13:51:42;;;;;;;;;30.40;29.00;;;;;18.90;40.95;100821.75;5045423;28;8846;-87
2022/11/12 13:54:37;;;;;;;;;32.60;29.20;;;;;18.58;41.73;100820.44;5042415;28;8875;-88
2022/11/12 13:57:51;;;;;;;;;32.40;30.80;;;;;18.72;41.41;100822.00;5021097;28;8910;-87
2022/11/12 14:00:57;;;;;;;;;32.60;30.00;;;;;18.55;41.51;100815.16;5024516;28;9081;-88
2022/11/12 14:03:53;;;;;;;;;29.00;27.20;;;;;18.58;41.37;100817.78;5023346;28;8953;-88